Time;durP1;ratioP1;P1;durP2;ratioP2;P2;SDS_P1;SDS_P2;PMS_P1;PMS_P2;Temp;Humidity;BMP_temperature;BMP_pressure;BME280_temperature;BME280_humidity;BME280_pressure;Samples;Min_cycle;Max_cycle;Signal;HPM_P1;HPM_P2
2021/09/29 00:02:01;;;;;;;7.55;4.30;;;;;;;10.34;75.55;100489.75;1805981;77;21506;-65
2021/09/29 00:04:27;;;;;;;6.45;4.60;;;;;;;10.32;75.58;100490.24;1807501;77;21066;-65
2021/09/29 00:06:54;;;;;;;6.10;3.90;;;;;;;10.29;75.60;100489.05;1804284;77;21067;-65
2021/09/29 00:09:21;;;;;;;5.42;4.22;;;;;;;10.26;75.62;100481.29;1807297;77;21519;-65
2021/09/29 00:11:47;;;;;;;5.62;4.40;;;;;;;10.23;75.65;100489.22;1796971;77;21082;-65
2021/09/29 00:14:14;;;;;;;5.33;4.22;;;;;;;10.21;75.66;100483.20;1809208;77;21028;-65
2021/09/29 00:16:41;;;;;;;5.37;4.60;;;;;;;10.18;75.66;100485.91;1808033;77;20991;-65
2021/09/29 00:19:07;;;;;;;6.70;4.60;;;;;;;10.17;75.69;100488.13;1764796;78;22985;-66
2021/09/29 00:21:34;;;;;;;4.43;4.00;;;;;;;10.15;75.75;100487.32;1764908;78;21450;-65
2021/09/29 00:24:01;;;;;;;7.17;4.90;;;;;;;10.12;75.74;100488.73;1759224;78;21437;-64
2021/09/29 00:26:27;;;;;;;5.15;4.20;;;;;;;10.09;75.74;100485.31;1760946;79;21147;-65
2021/09/29 00:28:54;;;;;;;8.68;4.70;;;;;;;10.06;75.83;100488.02;1761368;79;21966;-65
2021/09/29 00:31:35;;;;;;;7.87;5.00;;;;;;;10.04;75.78;100487.21;1757619;79;21456;-65
2021/09/29 00:34:14;;;;;;;5.50;4.35;;;;;;;10.02;75.80;100483.80;1740775;79;21132;-65
2021/09/29 00:36:45;;;;;;;8.53;4.33;;;;;;;10.00;75.88;100477.80;1763983;79;21691;-65
2021/09/29 00:39:13;;;;;;;5.80;5.08;;;;;;;9.98;75.88;100479.59;1762812;79;21449;-65
2021/09/29 00:41:41;;;;;;;5.25;4.60;;;;;;;9.97;75.86;100477.90;1764028;78;21132;-65
2021/09/29 00:44:08;;;;;;;11.70;4.60;;;;;;;9.97;75.92;100484.84;1767055;79;22397;-65
2021/09/29 00:46:36;;;;;;;7.35;4.42;;;;;;;9.93;75.90;100473.66;1766628;78;21514;-65
2021/09/29 00:49:03;;;;;;;6.30;5.08;;;;;;;9.93;75.89;100473.66;1761480;79;21101;-65
2021/09/29 00:51:31;;;;;;;6.80;4.28;;;;;;;9.91;75.94;100472.01;1763318;79;21383;-65
2021/09/29 00:53:58;;;;;;;7.08;5.03;;;;;;;9.90;75.94;100473.77;1765172;78;21456;-65
2021/09/29 00:56:24;;;;;;;5.42;4.42;;;;;;;9.89;75.97;100477.30;1732529;80;22428;-65
2021/09/29 00:58:51;;;;;;;6.67;4.10;;;;;;;9.89;75.99;100479.02;1735848;80;21621;-65
2021/09/29 01:01:18;;;;;;;5.53;4.37;;;;;;;9.86;76.03;100473.02;1771284;79;21409;-65
2021/09/29 01:03:48;;;;;;;5.95;4.45;;;;;;;9.85;76.02;100475.67;1766852;79;21732;-65
2021/09/29 01:06:26;;;;;;;4.97;4.17;;;;;;;9.82;76.02;100473.16;1773470;78;21646;-65
2021/09/29 01:08:57;;;;;;;7.90;3.85;;;;;;;9.80;76.02;100470.63;1762642;78;21712;-65
2021/09/29 01:11:47;;;;;;;4.62;4.00;;;;;;;9.78;76.04;100466.35;1760394;78;21441;-65
2021/09/29 01:14:31;;;;;;;5.58;4.78;;;;;;;9.76;76.08;100459.87;1755650;78;21657;-65
2021/09/29 01:17:01;;;;;;;7.17;4.53;;;;;;;9.74;76.12;100464.73;1761256;79;22330;-65
2021/09/29 01:20:06;;;;;;;6.97;4.28;;;;;;;9.71;76.18;100464.83;1769822;78;21098;-65
2021/09/29 01:23:01;;;;;;;8.08;5.28;;;;;;;9.67;76.17;100458.02;1761131;79;21456;-65
2021/09/29 01:25:59;;;;;;;8.18;4.58;;;;;;;9.61;76.20;100458.61;1765657;79;21548;-66
2021/09/29 01:28:42;;;;;;;5.60;4.60;;;;;;;9.56;76.27;100456.59;1769248;79;21552;-65
2021/09/29 01:31:09;;;;;;;5.83;4.45;;;;;;;9.54;76.29;100459.69;1749976;78;21069;-65
2021/09/29 01:33:38;;;;;;;5.80;4.55;;;;;;;9.50;76.36;100455.94;1760244;78;21271;-65
2021/09/29 01:36:06;;;;;;;8.73;4.85;;;;;;;9.46;76.38;100449.95;1764177;79;21477;-65
2021/09/29 01:38:34;;;;;;;6.22;4.55;;;;;;;9.44;76.43;100456.98;1763834;78;21578;-65
2021/09/29 01:41:02;;;;;;;5.65;4.87;;;;;;;9.42;76.48;100441.83;1783953;78;22414;-66
2021/09/29 01:43:30;;;;;;;7.47;4.33;;;;;;;9.41;76.55;100447.96;1770657;78;21045;-65
2021/09/29 01:45:57;;;;;;;6.72;4.95;;;;;;;9.40;76.58;100450.14;1754946;80;21350;-65
2021/09/29 01:48:24;;;;;;;7.60;5.30;;;;;;;9.39;76.55;100440.63;1730842;79;21383;-65
2021/09/29 01:50:57;;;;;;;6.53;4.50;;;;;;;9.40;76.60;100439.72;1743406;79;22379;-65
2021/09/29 01:53:28;;;;;;;5.95;4.83;;;;;;;9.42;76.60;100445.74;1747079;81;21018;-65
2021/09/29 01:55:57;;;;;;;5.17;4.67;;;;;;;9.42;76.60;100448.35;1748636;80;20938;-65
2021/09/29 01:58:23;;;;;;;7.10;4.70;;;;;;;9.41;76.66;100444.05;1752335;79;21565;-65
2021/09/29 02:00:50;;;;;;;7.97;4.30;;;;;;;9.39;76.68;100440.63;1753748;79;21481;-65
2021/09/29 02:03:21;;;;;;;5.90;4.60;;;;;;;9.39;76.64;100445.84;1713177;80;21582;-65
2021/09/29 02:05:50;;;;;;;5.30;4.00;;;;;;;9.36;76.75;100440.73;1743221;79;21445;-65
2021/09/29 02:08:17;;;;;;;5.30;4.47;;;;;;;9.34;76.76;100445.12;1736942;80;21097;-65
2021/09/29 02:10:46;;;;;;;8.48;4.75;;;;;;;9.33;76.72;100439.06;1760698;80;21022;-65
2021/09/29 02:13:13;;;;;;;6.03;4.17;;;;;;;9.32;76.76;100444.31;1751992;80;21134;-64
2021/09/29 02:15:39;;;;;;;5.60;4.67;;;;;;;9.30;76.76;100445.67;1753008;79;21564;-65
2021/09/29 02:18:06;;;;;;;6.37;4.43;;;;;;;9.29;76.80;100447.02;1737176;80;21080;-65
2021/09/29 02:20:34;;;;;;;5.33;4.62;;;;;;;9.28;76.82;100447.92;1703810;81;21118;-64
2021/09/29 02:23:01;;;;;;;5.10;4.37;;;;;;;9.27;76.81;100446.20;1737504;79;21133;-64
2021/09/29 02:25:28;;;;;;;7.58;4.45;;;;;;;9.26;76.82;100443.20;1762818;78;21575;-64
2021/09/29 02:27:54;;;;;;;8.28;4.83;;;;;;;9.12;76.90;100427.52;1746102;79;21060;-64
2021/09/29 02:30:22;;;;;;;4.93;4.30;;;;;;;9.12;76.90;100427.52;1741224;80;21453;-64
2021/09/29 02:32:49;;;;;;;5.05;4.08;;;;;;;9.21;76.96;100439.88;1748356;79;21352;-64
2021/09/29 02:35:16;;;;;;;7.35;5.05;;;;;;;9.17;76.86;100441.27;1761172;80;21054;-64
2021/09/29 02:37:44;;;;;;;7.83;4.10;;;;;;;9.14;76.96;100440.52;1715572;81;22055;-64
2021/09/29 02:40:11;;;;;;;10.90;4.58;;;;;;;9.12;77.01;100428.83;1716503;80;21531;-64
2021/09/29 02:42:38;;;;;;;5.65;4.92;;;;;;;9.09;77.02;100436.73;1768261;80;21568;-65
2021/09/29 02:45:06;;;;;;;5.53;4.40;;;;;;;9.07;77.04;100434.62;1779269;79;21354;-64
2021/09/29 02:47:32;;;;;;;6.78;4.75;;;;;;;9.05;77.07;100439.05;1779094;79;21016;-64
2021/09/29 02:49:59;;;;;;;4.75;4.17;;;;;;;9.04;77.03;100433.41;1766636;79;22648;-64
2021/09/29 02:52:26;;;;;;;6.05;4.72;;;;;;;9.01;77.03;100434.80;1771423;79;21065;-64
2021/09/29 02:54:52;;;;;;;6.92;4.37;;;;;;;9.00;77.08;100435.72;1771889;78;21130;-64
2021/09/29 02:57:20;;;;;;;8.65;5.10;;;;;;;8.97;77.07;100441.02;1772763;78;20934;-64
2021/09/29 02:59:47;;;;;;;7.92;4.78;;;;;;;8.93;77.12;100438.08;1769955;78;21055;-64
2021/09/29 03:02:14;;;;;;;5.40;4.83;;;;;;;8.91;77.13;100438.59;1780110;78;22564;-64
2021/09/29 03:04:40;;;;;;;5.75;4.85;;;;;;;8.91;77.18;100441.20;1766337;78;21505;-65
2021/09/29 03:07:07;;;;;;;7.53;4.67;;;;;;;8.90;77.19;100444.69;1757965;78;20988;-64
2021/09/29 03:09:34;;;;;;;9.00;4.80;;;;;;;8.90;77.23;100452.50;1768966;79;21585;-65
2021/09/29 03:12:00;;;;;;;8.07;5.03;;;;;;;8.87;77.21;100451.28;1768599;78;20961;-65
2021/09/29 03:14:27;;;;;;;7.83;5.28;;;;;;;8.84;77.22;100448.31;1767043;78;21441;-64
2021/09/29 03:16:54;;;;;;;6.28;4.85;;;;;;;8.81;77.26;100441.05;1758891;78;23355;-64
2021/09/29 03:19:20;;;;;;;6.42;4.83;;;;;;;8.78;77.30;100446.34;1758790;80;21625;-64
2021/09/29 03:21:47;;;;;;;6.67;4.22;;;;;;;8.74;77.32;100437.33;1736419;80;21401;-64
2021/09/29 03:24:19;;;;;;;5.90;4.87;;;;;;;8.73;77.32;100440.80;1754708;79;21088;-64
2021/09/29 03:26:42;;;;;;;6.58;4.40;;;;;;;8.70;77.33;100435.69;1774696;79;21402;-64
2021/09/29 03:29:08;;;;;;;9.43;6.03;;;;;;;8.67;77.40;100440.13;1785818;79;21419;-64
2021/09/29 03:31:35;;;;;;;6.53;5.03;;;;;;;8.61;77.44;100438.55;1761953;79;21449;-64
2021/09/29 03:34:02;;;;;;;11.12;6.40;;;;;;;8.58;77.58;100439.09;1767035;79;21978;-64
2021/09/29 03:36:28;;;;;;;5.27;4.60;;;;;;;8.53;77.52;100437.91;1771030;79;21140;-65
2021/09/29 03:38:55;;;;;;;5.47;4.60;;;;;;;8.51;77.61;100443.59;1766984;79;21444;-65
2021/09/29 03:41:22;;;;;;;7.50;5.55;;;;;;;8.48;77.63;100438.48;1762967;79;21430;-64
2021/09/29 03:43:48;;;;;;;7.47;5.03;;;;;;;8.45;77.67;100442.47;1768215;79;21152;-64
2021/09/29 03:46:16;;;;;;;7.10;5.17;;;;;;;8.43;77.60;100433.84;1728296;80;21528;-64
2021/09/29 03:48:44;;;;;;;8.10;6.28;;;;;;;8.38;77.72;100430.50;1751647;79;21439;-64
2021/09/29 03:51:12;;;;;;;9.38;5.25;;;;;;;8.33;77.84;100432.37;1771394;79;20953;-65
2021/09/29 03:53:39;;;;;;;8.23;6.28;;;;;;;8.25;77.76;100433.41;1775313;79;21272;-65
2021/09/29 03:56:06;;;;;;;5.83;4.95;;;;;;;8.20;77.79;100430.06;1795943;78;21719;-65
2021/09/29 03:58:33;;;;;;;12.30;5.65;;;;;;;8.14;78.12;100428.94;1766218;80;21209;-65
2021/09/29 04:00:59;;;;;;;8.93;5.85;;;;;;;8.06;78.04;100425.22;1785289;79;21059;-65
2021/09/29 04:03:26;;;;;;;8.35;6.25;;;;;;;7.99;78.02;100423.69;1763821;79;21584;-65
2021/09/29 04:05:53;;;;;;;9.87;6.70;;;;;;;7.94;78.10;100420.80;1776941;78;21127;-65
2021/09/29 04:08:20;;;;;;;8.35;6.42;;;;;;;7.85;78.13;100424.03;1780082;78;20978;-65
2021/09/29 04:10:47;;;;;;;14.23;7.40;;;;;;;7.81;78.29;100419.81;1753605;80;21505;-65
2021/09/29 04:13:14;;;;;;;9.43;6.47;;;;;;;7.76;78.24;100419.07;1784474;78;20968;-65
2021/09/29 04:15:40;;;;;;;15.05;6.85;;;;;;;7.70;78.45;100414.03;1765498;78;21157;-65
2021/09/29 04:18:07;;;;;;;10.93;7.57;;;;;;;7.65;78.45;100418.48;1759870;78;21779;-65
2021/09/29 04:20:34;;;;;;;9.63;6.60;;;;;;;7.61;78.71;100415.53;1696571;81;21633;-65
2021/09/29 04:23:02;;;;;;;10.65;6.40;;;;;;;7.58;78.50;100416.91;1747117;80;21628;-65
2021/09/29 04:25:29;;;;;;;8.75;7.12;;;;;;;7.54;78.56;100417.88;1774972;78;21119;-65
2021/09/29 04:27:56;;;;;;;11.40;7.47;;;;;;;7.52;78.68;100420.95;1742717;79;21060;-65
2021/09/29 04:30:23;;;;;;;18.85;8.00;;;;;;;7.48;78.68;100420.59;1768151;78;21497;-65
2021/09/29 04:32:50;;;;;;;12.13;7.67;;;;;;;7.45;78.73;100412.88;1771951;78;21041;-64
2021/09/29 04:35:17;;;;;;;15.38;7.45;;;;;;;7.43;78.80;100417.28;1731367;80;21393;-65
2021/09/29 04:37:44;;;;;;;16.27;7.03;;;;;;;7.39;78.97;100413.45;1771665;78;21052;-65
2021/09/29 04:40:11;;;;;;;12.00;8.00;;;;;;;7.37;79.03;100411.33;1760889;78;21633;-65
2021/09/29 04:42:38;;;;;;;8.45;6.17;;;;;;;7.36;79.03;100412.65;1768691;78;22471;-65
2021/09/29 04:45:06;;;;;;;9.93;7.10;;;;;;;7.35;79.14;100415.70;1769502;78;21424;-65
2021/09/29 04:47:33;;;;;;;11.80;6.95;;;;;;;7.34;79.16;100411.41;1767860;78;21499;-65
2021/09/29 04:50:00;;;;;;;16.95;6.75;;;;;;;7.34;79.20;100420.49;1774925;78;21239;-65
2021/09/29 04:52:27;;;;;;;10.35;7.45;;;;;;;7.33;79.27;100424.41;1767298;78;21550;-65
2021/09/29 04:54:54;;;;;;;11.15;7.40;;;;;;;7.33;79.31;100422.66;1777989;78;21517;-65
2021/09/29 04:57:21;;;;;;;10.30;8.30;;;;;;;7.35;79.46;100425.23;1770411;78;22154;-65
2021/09/29 04:59:48;;;;;;;9.85;7.37;;;;;;;7.37;79.55;100426.91;1778756;78;21114;-65
2021/09/29 05:02:15;;;;;;;10.10;7.50;;;;;;;7.45;79.67;100424.57;1719693;78;22246;-65
2021/09/29 05:04:42;;;;;;;9.50;6.25;;;;;;;7.62;80.03;100401.66;1790450;78;21459;-64
2021/09/29 05:07:17;;;;;;;7.05;6.12;;;;;;;8.04;79.50;100415.78;1746978;80;21830;-65
2021/09/29 05:09:46;;;;;;;7.85;6.83;;;;;;;8.35;79.37;100420.18;1742044;81;21596;-65
2021/09/29 05:12:22;;;;;;;7.45;5.60;;;;;;;8.65;79.06;100416.73;1747574;80;21486;-65
2021/09/29 05:14:49;;;;;;;8.63;5.65;;;;;;;8.92;78.81;100420.76;1745145;81;21097;-65
2021/09/29 05:17:16;;;;;;;10.43;5.65;;;;;;;9.11;78.35;100419.77;1724794;80;21467;-65
2021/09/29 05:19:43;;;;;;;9.07;5.53;;;;;;;9.01;78.07;100425.69;1745190;79;21548;-66
2021/09/29 05:22:10;;;;;;;9.93;6.55;;;;;;;8.79;78.11;100420.70;1742860;81;21077;-70
2021/09/29 05:24:37;;;;;;;9.50;6.03;;;;;;;8.63;78.36;100428.96;1721863;80;22396;-72
2021/09/29 05:27:04;;;;;;;8.90;5.40;;;;;;;8.48;78.51;100416.36;1754792;79;21129;-73
2021/09/29 05:29:31;;;;;;;8.55;6.83;;;;;;;8.39;78.64;100421.82;1755158;79;22420;-72
2021/09/29 05:31:59;;;;;;;8.63;6.20;;;;;;;8.28;78.75;100425.52;1755627;79;21626;-72
2021/09/29 05:34:25;;;;;;;9.73;7.33;;;;;;;8.25;78.89;100433.41;1772000;80;21448;-72
2021/09/29 05:36:52;;;;;;;6.33;5.50;;;;;;;8.22;78.99;100428.29;1740704;80;22310;-72
2021/09/29 05:39:19;;;;;;;6.67;5.30;;;;;;;8.19;79.30;100425.77;1753751;78;21672;-73
2021/09/29 05:41:46;;;;;;;7.15;5.60;;;;;;;8.19;79.30;100425.77;1756147;78;21864;-71
2021/09/29 05:44:15;;;;;;;9.75;5.72;;;;;;;8.24;79.18;100421.31;1765824;78;21594;-70
2021/09/29 05:46:41;;;;;;;8.43;6.00;;;;;;;8.33;79.22;100421.95;1763285;78;21527;-71
2021/09/29 05:49:08;;;;;;;8.15;5.58;;;;;;;8.32;79.05;100422.83;1767726;78;21930;-73
2021/09/29 05:51:35;;;;;;;10.07;6.87;;;;;;;8.25;79.28;100415.20;1770068;78;20964;-73
2021/09/29 05:54:05;;;;;;;8.53;5.53;;;;;;;8.24;79.28;100410.91;1770096;78;21599;-71
2021/09/29 05:56:50;;;;;;;9.48;6.55;;;;;;;8.22;79.35;100419.64;1765311;78;21531;-72
2021/09/29 05:59:25;;;;;;;8.70;6.50;;;;;;;8.30;79.41;100413.33;1713312;80;21182;-74
2021/09/29 06:01:56;;;;;;;21.85;7.22;;;;;;;8.53;79.45;100407.98;1752761;80;21757;-70
2021/09/29 06:04:25;;;;;;;11.45;6.35;;;;;;;8.64;79.24;100409.83;1732692;79;21497;-72
2021/09/29 06:06:52;;;;;;;;;;;;;;;8.74;79.19;100408.68;1754897;79;22548;-73
2021/09/29 06:09:19;;;;;;;8.43;5.93;;;;;;;8.87;79.17;100410.47;1750401;78;22355;-71
2021/09/29 06:11:46;;;;;;;6.65;5.60;;;;;;;9.05;79.21;100411.69;1753679;79;21355;-70
2021/09/29 06:14:15;;;;;;;11.22;5.87;;;;;;;9.25;79.07;100411.08;1754099;79;21441;-72
2021/09/29 06:16:46;;;;;;;8.20;6.08;;;;;;;9.40;78.90;100407.14;1746166;79;21625;-72
2021/09/29 06:19:17;;;;;;;11.73;5.67;;;;;;;9.55;78.89;100412.30;1751509;79;21477;-72
2021/09/29 06:21:42;;;;;;;8.88;6.45;;;;;;;9.69;78.76;100411.86;1757194;79;21148;-72
2021/09/29 06:24:09;;;;;;;9.58;5.83;;;;;;;9.79;78.54;100411.52;1753529;79;21508;-72
2021/09/29 06:26:36;;;;;;;15.03;5.70;;;;;;;9.81;78.31;100403.66;1752790;79;21154;-74
2021/09/29 06:29:03;;;;;;;8.08;5.70;;;;;;;9.79;78.30;100408.06;1755788;79;21076;-74
2021/09/29 06:31:30;;;;;;;7.35;5.83;;;;;;;9.78;78.31;100401.15;1714351;80;21741;-73
2021/09/29 06:33:57;;;;;;;9.23;6.60;;;;;;;9.83;78.37;100412.26;1761433;79;21504;-75
2021/09/29 06:36:24;;;;;;;9.10;6.00;;;;;;;9.92;78.39;100408.06;1758057;79;21567;-74
2021/09/29 06:38:51;;;;;;;14.07;6.50;;;;;;;9.91;78.12;100409.41;1759551;79;21977;-75
2021/09/29 06:41:21;;;;;;;8.05;6.40;;;;;;;9.84;78.03;100403.55;1756831;79;22100;-76
2021/09/29 06:43:48;;;;;;;7.67;5.78;;;;;;;9.81;78.13;100403.66;1760753;80;21988;-75
2021/09/29 06:46:15;;;;;;;11.23;6.30;;;;;;;9.83;78.20;100417.47;1758129;79;21525;-73
2021/09/29 06:48:42;;;;;;;7.60;6.50;;;;;;;9.89;78.34;100412.08;1755624;79;22126;-73
2021/09/29 06:51:09;;;;;;;9.30;5.72;;;;;;;9.97;78.17;100408.77;1759138;79;21061;-71
2021/09/29 06:53:39;;;;;;;7.77;6.00;;;;;;;10.04;78.25;100411.55;1756109;80;22310;-73
2021/09/29 06:56:06;;;;;;;7.03;6.03;;;;;;;10.12;78.04;100405.23;1762512;79;21462;-75
2021/09/29 06:58:34;;;;;;;9.60;6.12;;;;;;;10.17;78.03;100408.53;1726623;80;27302;-74
2021/09/29 07:01:01;;;;;;;9.75;6.67;;;;;;;10.32;78.16;100418.46;1755859;79;21945;-70
2021/09/29 07:03:28;;;;;;;10.40;6.80;;;;;;;10.52;78.03;100415.98;1757820;79;22379;-70
2021/09/29 07:05:56;;;;;;;11.78;6.15;;;;;;;10.71;78.04;100407.50;1750124;79;21173;-70
2021/09/29 07:08:24;;;;;;;12.30;5.45;;;;;;;10.82;77.82;100405.34;1754212;79;21308;-70
2021/09/29 07:10:51;;;;;;;14.20;6.20;;;;;;;10.94;77.51;100407.48;1758617;79;21506;-69
2021/09/29 07:13:17;;;;;;;;;;;;;;;11.02;77.62;100414.19;1759149;79;21093;-72
2021/09/29 07:15:44;;;;;;;10.50;5.80;;;;;;;11.08;77.61;100417.41;1753718;79;20803;-70
2021/09/29 07:18:12;;;;;;;9.75;6.25;;;;;;;11.19;77.78;100415.23;1758295;79;22007;-70
2021/09/29 07:20:40;;;;;;;10.82;6.22;;;;;;;11.23;77.57;100413.37;1756447;79;21847;-69
2021/09/29 07:23:07;;;;;;;7.42;6.03;;;;;;;11.23;77.44;100421.22;1758125;79;22006;-69
2021/09/29 07:25:35;;;;;;;12.85;6.55;;;;;;;11.28;77.07;100416.63;1756858;79;20982;-69
2021/09/29 07:28:02;;;;;;;6.58;5.33;;;;;;;11.26;76.89;100416.30;1762966;79;20947;-69
2021/09/29 07:30:29;;;;;;;18.00;6.28;;;;;;;11.21;77.04;100415.19;1754315;79;21288;-68
2021/09/29 07:33:02;;;;;;;24.37;7.58;;;;;;;11.20;77.20;100414.77;1761174;79;21513;-70
2021/09/29 07:35:25;;;;;;;7.70;6.10;;;;;;;11.18;76.88;100414.00;1754532;79;22418;-69
2021/09/29 07:37:52;;;;;;;8.98;5.80;;;;;;;11.22;77.23;100410.34;1759355;79;20993;-69
2021/09/29 07:40:19;;;;;;;6.95;5.65;;;;;;;11.33;77.12;100409.47;1758621;79;21322;-67
2021/09/29 07:42:46;;;;;;;29.83;6.63;;;;;;;11.32;76.67;100407.77;1750601;79;21000;-67
2021/09/29 07:45:12;;;;;;;11.10;7.57;;;;;;;11.33;76.60;100401.62;1759255;79;21137;-68
2021/09/29 07:47:39;;;;;;;15.10;5.55;;;;;;;11.36;76.66;100396.73;1753735;79;22680;-68
2021/09/29 07:50:12;;;;;;;9.03;5.60;;;;;;;11.35;76.50;100403.73;1753177;79;21668;-69
2021/09/29 07:52:38;;;;;;;13.85;6.30;;;;;;;11.42;76.28;100402.55;1756897;79;21385;-69
2021/09/29 07:55:05;;;;;;;11.65;6.05;;;;;;;11.49;76.27;100387.95;1759732;79;21410;-67
2021/09/29 07:57:32;;;;;;;9.65;5.95;;;;;;;11.58;76.31;100396.72;1758219;79;21005;-69
2021/09/29 07:59:59;;;;;;;10.72;6.10;;;;;;;11.67;76.21;100396.34;1760144;79;21874;-70
2021/09/29 08:02:27;;;;;;;9.40;5.62;;;;;;;11.71;75.57;100401.86;1756550;79;21031;-70
2021/09/29 08:04:56;;;;;;;9.87;6.10;;;;;;;11.90;76.15;100397.19;1741415;80;20938;-67
2021/09/29 08:07:22;;;;;;;8.83;5.92;;;;;;;11.90;76.15;100397.19;1737344;80;22890;-68
2021/09/29 08:09:49;;;;;;;8.13;6.45;;;;;;;11.97;75.93;100403.88;1756557;79;20999;-67
2021/09/29 08:12:15;;;;;;;8.97;5.90;;;;;;;11.97;75.17;100400.80;1751342;79;21509;-67
2021/09/29 08:14:42;;;;;;;8.70;6.00;;;;;;;11.96;75.35;100403.46;1751950;79;20911;-69
2021/09/29 08:17:09;;;;;;;7.70;5.33;;;;;;;12.09;75.62;100392.41;1752505;79;21264;-67
2021/09/29 08:19:36;;;;;;;10.17;7.20;;;;;;;12.17;75.32;100390.78;1748890;79;21104;-68
2021/09/29 08:22:06;;;;;;;11.73;6.00;;;;;;;12.18;74.93;100389.85;1753213;79;22038;-68
2021/09/29 08:24:42;;;;;;;7.80;5.17;;;;;;;12.23;75.04;100390.51;1752326;79;21098;-69
2021/09/29 08:27:10;;;;;;;8.85;5.60;;;;;;;12.33;75.08;100383.58;1753684;79;20933;-68
2021/09/29 08:29:40;;;;;;;12.30;5.40;;;;;;;12.46;74.91;100389.52;1757887;79;21970;-69
2021/09/29 08:44:56;;;;;;;10.15;5.50;;;;;;;12.76;73.60;100383.34;1765427;79;20943;-70
2021/09/29 08:47:30;;;;;;;11.10;5.10;;;;;;;12.83;73.97;100377.84;1763020;79;20929;-69
2021/09/29 08:50:06;;;;;;;7.70;4.90;;;;;;;12.94;73.57;100376.88;1760935;79;21543;-68
2021/09/29 08:52:42;;;;;;;13.05;5.47;;;;;;;13.01;73.38;100375.66;1765100;80;20928;-69
2021/09/29 09:17:04;;;;;;;12.93;5.58;;;;;;;13.01;72.44;100366.48;1721123;81;20974;-68
2021/09/29 09:19:31;;;;;;;11.33;5.22;;;;;;;13.09;71.57;100365.66;1761912;79;21311;-69
2021/09/29 09:22:02;;;;;;;15.15;5.67;;;;;;;13.13;71.25;100360.64;1757474;79;21315;-68
2021/09/29 09:27:44;;;;;;;6.05;4.75;;;;;;;13.28;70.71;100339.91;1560807;89;21633;-69
2021/09/29 09:30:15;;;;;;;9.75;5.22;;;;;;;13.28;70.71;100339.91;1546113;90;21250;-69
2021/09/29 09:32:45;;;;;;;6.28;5.05;;;;;;;13.46;71.26;100354.73;1544595;90;21085;-68
2021/09/29 09:35:13;;;;;;;17.12;5.42;;;;;;;13.48;69.81;100347.65;1549231;90;21504;-68
2021/09/29 09:37:52;;;;;;;14.18;4.83;;;;;;;13.53;70.74;100348.28;1518407;90;21650;-69
2021/09/29 09:40:16;;;;;;;6.65;4.70;;;;;;;13.60;70.56;100336.53;1552371;90;21520;-68
2021/09/29 09:42:48;;;;;;;15.78;5.35;;;;;;;13.65;70.53;100339.78;1549645;90;22407;-69
2021/09/29 09:45:18;;;;;;;15.38;6.35;;;;;;;13.63;70.14;100314.07;1552345;90;21701;-69
2021/09/29 09:47:45;;;;;;;16.80;5.72;;;;;;;13.82;70.46;100327.59;1563977;90;22181;-70
2021/09/29 09:50:26;;;;;;;8.73;4.78;;;;;;;13.91;70.49;100329.73;1575117;88;21560;-68
2021/09/29 09:52:54;;;;;;;5.53;3.95;;;;;;;13.98;70.26;100333.75;1565814;89;22155;-70
2021/09/29 09:55:23;;;;;;;27.48;5.22;;;;;;;13.97;69.08;100332.03;1577120;88;21064;-68
2021/09/29 09:58:00;;;;;;;5.95;3.80;;;;;;;13.99;69.21;100319.69;1581017;88;21111;-68
2021/09/29 10:00:29;;;;;;;9.10;4.20;;;;;;;13.98;69.12;100318.00;1559505;89;21113;-68
2021/09/29 10:02:55;;;;;;;13.60;4.15;;;;;;;13.97;68.93;100317.59;1579947;88;22334;-67
2021/09/29 10:05:26;;;;;;;13.50;4.50;;;;;;;13.93;69.24;100314.76;1652437;83;21626;-67
2021/09/29 10:07:53;;;;;;;12.47;3.92;;;;;;;13.98;69.04;100311.44;1666640;84;21222;-68
2021/09/29 10:23:12;;;;;;;8.75;3.77;;;;;;;14.13;67.82;100302.38;1725893;80;22034;-67
2021/09/29 10:26:08;;;;;;;11.50;4.15;;;;;;;14.27;67.20;100299.86;1760630;80;22134;-72
2021/09/29 10:28:38;;;;;;;8.05;4.25;;;;;;;14.28;67.75;100298.91;1762670;80;21044;-69
2021/09/29 10:33:42;;;;;;;21.37;5.12;;;;;;;14.32;67.60;100292.59;1756259;79;21420;-69
2021/09/29 10:36:25;;;;;;;5.90;4.05;;;;;;;14.36;67.55;100288.84;1774665;79;20965;-66
2021/09/29 10:44:25;;;;;;;9.15;3.75;;;;;;;14.46;66.98;100280.86;1793395;79;21052;-67
2021/09/29 10:47:14;;;;;;;8.15;4.30;;;;;;;14.49;66.73;100284.63;1772029;79;21987;-66
2021/09/29 10:49:51;;;;;;;14.47;4.53;;;;;;;14.50;66.85;100283.69;1796197;79;21834;-67
2021/09/29 10:52:19;;;;;;;8.00;3.27;;;;;;;14.54;66.71;100282.64;1791406;77;21027;-67
2021/09/29 11:30:57;;;;;;;8.50;3.42;;;;;;;14.48;63.29;100245.28;1639066;85;21492;-65
2021/09/29 11:38:43;;;;;;;6.30;2.77;;;;;;;14.76;63.61;100231.52;1634143;85;21994;-66
2021/09/29 12:11:25;;;;;;;4.62;3.47;;;;;;;14.67;62.26;100193.91;1684057;84;21064;-65
2021/09/29 12:14:04;;;;;;;10.28;4.87;;;;;;;14.71;62.19;100183.62;1680998;83;22216;-64
2021/09/29 12:16:33;;;;;;;7.08;3.50;;;;;;;14.79;61.33;100178.77;1679132;84;22086;-64
2021/09/29 12:19:08;;;;;;;5.15;4.03;;;;;;;14.79;61.69;100172.20;1650984;84;21391;-64
2021/09/29 12:22:40;;;;;;;;;;;;;;;;;;;;;
2021/09/29 12:26:37;;;;;;;9.25;3.95;;;;;;;15.08;62.32;100169.17;1578332;89;21199;-65
2021/09/29 12:28:35;;;;;;;9.98;4.60;;;;;;;15.09;60.31;100170.02;1478021;91;21007;-65
2021/09/29 12:31:31;;;;;;;4.10;3.37;;;;;;;15.11;61.73;100161.10;1543174;91;21070;-66
2021/09/29 12:36:31;;;;;;;6.53;3.72;;;;;;;15.21;60.79;100167.52;1543309;91;21142;-66
2021/09/29 12:38:59;;;;;;;11.88;4.17;;;;;;;15.20;61.14;100167.59;1552787;90;21969;-65
2021/09/29 12:41:31;;;;;;;12.13;3.70;;;;;;;15.18;60.63;100166.86;1552471;90;21629;-66
2021/09/29 12:44:08;;;;;;;6.00;3.70;;;;;;;15.18;60.88;100169.50;1545137;90;21481;-65
2021/09/29 12:50:03;;;;;;;18.12;4.25;;;;;;;14.98;59.38;100161.00;1492019;93;21419;-65
2021/09/29 12:52:33;;;;;;;11.80;3.60;;;;;;;14.86;59.06;100157.75;1493200;93;22034;-65
2021/09/29 12:55:00;;;;;;;8.45;3.58;;;;;;;14.80;59.18;100142.81;1483585;90;21576;-65
2021/09/29 12:57:29;;;;;;;7.58;4.50;;;;;;;14.81;59.59;100152.37;1546563;91;22162;-65
2021/09/29 12:59:59;;;;;;;9.10;3.65;;;;;;;14.90;60.19;100155.34;1546429;91;21408;-65
2021/09/29 13:02:27;;;;;;;5.40;3.30;;;;;;;15.01;60.09;100150.73;1644269;83;21054;-65
2021/09/29 13:04:54;;;;;;;36.55;5.90;;;;;;;15.04;59.57;100151.02;1685088;83;21631;-65
2021/09/29 13:07:20;;;;;;;27.60;5.30;;;;;;;15.02;59.60;100152.92;1684618;83;21312;-65
2021/09/29 13:09:47;;;;;;;6.50;3.50;;;;;;;15.06;59.74;100143.91;1685999;83;21054;-65
2021/09/29 13:12:13;;;;;;;8.23;3.93;;;;;;;15.08;60.06;100144.19;1686361;84;21017;-65
2021/09/29 13:14:43;;;;;;;10.48;3.83;;;;;;;15.10;60.05;100142.80;1683770;83;21619;-64
2021/09/29 13:17:10;;;;;;;14.58;4.03;;;;;;;15.06;59.18;100134.22;1688620;83;21515;-65
2021/09/29 13:19:45;;;;;;;12.83;4.10;;;;;;;14.85;58.51;100133.72;1689173;82;21483;-65
2021/09/29 13:22:17;;;;;;;5.92;4.00;;;;;;;14.72;58.56;100135.36;1664500;84;21331;-65
2021/09/29 13:38:13;;;;;;;4.95;4.50;;;;;;;14.92;59.63;100124.52;1747940;79;22069;-65
2021/09/29 13:40:43;;;;;;;8.68;5.92;;;;;;;15.06;59.62;100112.34;1746378;80;21334;-65
2021/09/29 13:43:10;;;;;;;11.38;4.20;;;;;;;15.12;59.52;100125.13;1746684;79;22053;-65
2021/09/29 13:45:38;;;;;;;18.27;5.30;;;;;;;15.11;59.38;100119.02;1752446;79;22264;-65
2021/09/29 13:48:11;;;;;;;7.78;3.83;;;;;;;15.17;59.55;100115.17;1756577;79;21343;-65
2021/09/29 13:50:42;;;;;;;6.17;3.62;;;;;;;15.08;59.25;100113.11;1734632;79;20952;-65
2021/09/29 13:53:11;;;;;;;11.83;4.30;;;;;;;14.97;58.85;100106.69;1765895;78;21849;-66
2021/09/29 13:55:37;;;;;;;7.67;4.15;;;;;;;14.84;59.37;100087.31;1766766;78;21378;-65
2021/09/29 13:58:13;;;;;;;6.50;4.00;;;;;;;14.98;59.42;100101.83;1761749;79;21667;-65
2021/09/29 14:00:50;;;;;;;9.25;4.40;;;;;;;14.96;59.04;100103.70;1768585;79;20941;-65
2021/09/29 14:03:33;;;;;;;5.62;4.47;;;;;;;14.93;58.96;100107.83;1763888;80;21027;-66
2021/09/29 14:14:35;;;;;;;9.68;4.40;;;;;;;14.63;59.44;100103.05;1753396;79;21348;-67
2021/09/29 14:30:33;;;;;;;12.58;5.55;;;;;;;14.01;59.40;100102.55;1744690;80;21059;-65
2021/09/29 14:33:05;;;;;;;10.63;4.30;;;;;;;13.99;59.44;100103.09;1768740;79;20972;-64